createdAt,value
2023-02-06T00:00:44.045Z,94438.72
2023-02-06T00:03:26.872Z,94442.81
2023-02-06T00:06:11.060Z,94433.59
2023-02-06T00:08:53.678Z,94437.75
2023-02-06T00:11:36.505Z,94442.75
2023-02-06T00:14:19.268Z,94443.47
2023-02-06T00:17:02.113Z,94448.25
2023-02-06T00:19:44.856Z,94433.84
2023-02-06T00:22:29.004Z,94438.97
2023-02-06T00:25:12.056Z,94444.03
2023-02-06T00:27:54.921Z,94436.38
2023-02-06T00:30:37.827Z,94435.50
2023-02-06T00:33:21.297Z,94441.63
2023-02-06T00:36:05.122Z,94442.81
2023-02-06T00:38:49.358Z,94443.59
2023-02-06T00:41:32.534Z,94447.69
2023-02-06T00:44:15.310Z,94451.16
2023-02-06T00:46:58.771Z,94446.72
2023-02-06T00:49:41.660Z,94446.63
2023-02-06T00:52:24.482Z,94444.59
2023-02-06T00:55:09.165Z,94457.13
2023-02-06T00:57:51.996Z,94451.34
2023-02-06T01:00:35.228Z,94439.59
2023-02-06T01:03:18.220Z,94444.38
2023-02-06T01:06:01.018Z,94444.34
2023-02-06T01:08:43.809Z,94434.34
2023-02-06T01:11:28.484Z,94422.34
2023-02-06T01:14:11.269Z,94427.19
2023-02-06T01:16:54.089Z,94439.63
2023-02-06T01:19:38.033Z,94437.75
2023-02-06T01:22:21.211Z,94436.00
2023-02-06T01:25:05.296Z,94432.50
2023-02-06T01:27:49.563Z,94428.25
2023-02-06T01:30:32.429Z,94423.03
2023-02-06T01:33:15.234Z,94419.72
2023-02-06T01:35:59.818Z,94434.00
2023-02-06T01:38:43.068Z,94442.38
2023-02-06T01:41:25.865Z,94438.31
2023-02-06T01:44:14.864Z,94434.34
2023-02-06T01:46:58.334Z,94439.63
2023-02-06T01:49:44.360Z,94443.25
2023-02-06T01:52:30.398Z,94445.91
2023-02-06T01:55:13.200Z,94445.13
2023-02-06T01:57:56.058Z,94445.13
2023-02-06T02:00:40.459Z,94441.66
2023-02-06T02:03:23.461Z,94450.03
2023-02-06T02:06:09.061Z,94453.41
2023-02-06T02:08:55.513Z,94442.53
2023-02-06T02:11:41.872Z,94440.00
2023-02-06T02:14:25.029Z,94439.94
2023-02-06T02:17:23.298Z,94421.38
2023-02-06T02:20:39.236Z,94428.06
2023-02-06T02:23:40.467Z,94417.03
2023-02-06T02:26:57.940Z,94419.44
2023-02-06T02:30:17.431Z,94416.84
2023-02-06T02:33:42.776Z,94417.63
2023-02-06T02:36:35.064Z,94425.94
2023-02-06T02:39:24.514Z,94430.31
2023-02-06T02:42:14.459Z,94435.69
2023-02-06T02:45:05.267Z,94432.72
2023-02-06T02:47:55.739Z,94428.72
2023-02-06T02:50:40.284Z,94417.78
2023-02-06T02:53:24.577Z,94427.78
2023-02-06T02:56:14.177Z,94428.59
2023-02-06T02:59:01.695Z,94436.22
2023-02-06T03:01:49.704Z,94439.59
2023-02-06T03:04:38.456Z,94437.53
2023-02-06T03:07:30.443Z,94443.97
2023-02-06T03:10:22.689Z,94450.59
2023-02-06T03:13:11.480Z,94455.66
2023-02-06T03:16:03.324Z,94445.50
2023-02-06T03:18:54.103Z,94449.00
2023-02-06T03:21:39.048Z,94446.44
2023-02-06T03:24:26.878Z,94440.63
2023-02-06T03:27:14.945Z,94444.91
2023-02-06T03:30:00.964Z,94452.31
2023-02-06T03:32:47.589Z,94446.28
2023-02-06T03:35:35.728Z,94451.09
2023-02-06T03:38:19.205Z,94445.19
2023-02-06T03:41:02.953Z,94443.53
2023-02-06T03:43:51.250Z,94436.75
2023-02-06T03:46:37.192Z,94429.78
2023-02-06T03:49:21.945Z,94432.03
2023-02-06T03:52:09.617Z,94436.88
2023-02-06T03:54:56.339Z,94434.94
2023-02-06T03:57:39.412Z,94424.56
2023-02-06T04:00:23.970Z,94431.84
2023-02-06T04:03:07.209Z,94419.91
2023-02-06T04:05:50.460Z,94413.34
2023-02-06T04:08:33.282Z,94420.22
2023-02-06T04:11:16.171Z,94421.31
2023-02-06T04:13:59.013Z,94422.34
2023-02-06T04:16:43.195Z,94419.72
2023-02-06T04:19:25.949Z,94419.00
2023-02-06T04:22:12.466Z,94418.94
2023-02-06T04:24:55.331Z,94415.72
2023-02-06T04:27:38.563Z,94415.56
2023-02-06T04:30:21.534Z,94408.06
2023-02-06T04:33:05.986Z,94411.22
2023-02-06T04:35:49.084Z,94394.41
2023-02-06T04:38:31.888Z,94390.84
2023-02-06T04:41:14.818Z,94395.00
2023-02-06T04:43:57.628Z,94391.59
2023-02-06T04:46:40.511Z,94380.34
2023-02-06T04:49:24.952Z,94381.09
2023-02-06T04:52:07.829Z,94383.47
2023-02-06T04:54:50.663Z,94380.09
2023-02-06T04:57:33.491Z,94385.91
2023-02-06T05:00:17.334Z,94380.09
2023-02-06T05:03:00.139Z,94373.50
2023-02-06T05:05:44.336Z,94370.25
2023-02-06T05:08:26.977Z,94372.09
2023-02-06T05:11:09.972Z,94362.78
2023-02-06T05:13:52.807Z,94356.13
2023-02-06T05:16:35.628Z,94357.00
2023-02-06T05:19:18.446Z,94351.22
2023-02-06T05:22:02.592Z,94358.75
2023-02-06T05:24:45.412Z,94356.38
2023-02-06T05:27:28.241Z,94363.34
2023-02-06T05:30:12.796Z,94362.72
2023-02-06T05:32:55.573Z,94362.94
2023-02-06T05:35:39.108Z,94362.47
2023-02-06T05:38:23.298Z,94360.56
2023-02-06T05:41:06.090Z,94367.16
2023-02-06T05:43:48.884Z,94356.75
2023-02-06T05:46:31.809Z,94349.59
2023-02-06T05:49:14.661Z,94362.44
2023-02-06T05:51:57.468Z,94388.59
2023-02-06T05:54:41.830Z,94382.13
2023-02-06T05:57:24.779Z,94382.25
2023-02-06T06:00:08.920Z,94381.69
2023-02-06T06:02:54.261Z,94387.63
2023-02-06T06:05:37.271Z,94385.91
2023-02-06T06:08:20.284Z,94396.22
2023-02-06T06:11:04.624Z,94396.03
2023-02-06T06:13:47.761Z,94397.28
2023-02-06T06:16:30.620Z,94411.19
2023-02-06T06:19:13.425Z,94414.63
2023-02-06T06:21:58.251Z,94408.38
2023-02-06T06:24:41.344Z,94404.06
2023-02-06T06:27:25.573Z,94390.63
2023-02-06T06:30:09.906Z,94393.88
2023-02-06T06:32:52.722Z,94396.94
2023-02-06T06:35:35.843Z,94388.97
2023-02-06T06:38:18.849Z,94383.75
2023-02-06T06:41:01.843Z,94387.78
2023-02-06T06:43:45.990Z,94381.78
2023-02-06T06:46:28.660Z,94376.75
2023-02-06T06:49:11.492Z,94387.50
2023-02-06T06:51:54.322Z,94384.13
2023-02-06T06:54:37.107Z,94373.16
2023-02-06T06:57:20.072Z,94379.81
2023-02-06T07:00:05.277Z,94368.75
2023-02-06T07:02:48.305Z,94370.22
2023-02-06T07:05:31.178Z,94372.56
2023-02-06T07:08:14.013Z,94363.09
2023-02-06T07:10:57.641Z,94362.00
2023-02-06T07:13:40.583Z,94362.63
2023-02-06T07:16:24.924Z,94367.56
2023-02-06T07:19:09.174Z,94365.00
2023-02-06T07:21:51.834Z,94370.78
2023-02-06T07:24:34.707Z,94381.63
2023-02-06T07:27:17.580Z,94381.63
2023-02-06T07:30:00.570Z,94391.59
2023-02-06T07:32:44.769Z,94382.06
2023-02-06T07:35:27.628Z,94384.41
2023-02-06T07:38:10.498Z,94369.75
2023-02-06T07:40:53.278Z,94361.91
2023-02-06T07:43:36.100Z,94373.47
2023-02-06T07:46:19.512Z,94375.91
2023-02-06T07:49:03.714Z,94378.81
2023-02-06T07:51:47.044Z,94378.72
2023-02-06T07:54:30.050Z,94379.94
2023-02-06T07:57:12.863Z,94375.59
2023-02-06T07:59:55.680Z,94386.41
2023-02-06T08:02:38.649Z,94389.84
2023-02-06T08:05:22.841Z,94390.88
2023-02-06T08:08:06.183Z,94394.44
2023-02-06T08:10:49.558Z,94396.34
2023-02-06T08:13:32.770Z,94391.56
2023-02-06T08:16:17.391Z,94386.31
2023-02-06T08:19:00.216Z,94388.06
2023-02-06T08:21:44.406Z,94373.75
2023-02-06T08:24:27.200Z,94377.38
2023-02-06T08:27:10.074Z,94370.84
2023-02-06T08:29:52.876Z,94369.19
2023-02-06T08:32:36.736Z,94368.34
2023-02-06T08:35:19.605Z,94367.13
2023-02-06T08:38:03.940Z,94365.94
2023-02-06T08:40:46.594Z,94362.19
2023-02-06T08:43:31.137Z,94363.47
2023-02-06T08:46:15.453Z,94362.41
2023-02-06T08:48:59.602Z,94371.03
2023-02-06T08:51:42.763Z,94358.19
2023-02-06T08:54:26.940Z,94358.53
2023-02-06T08:57:12.586Z,94356.69
2023-02-06T08:59:55.406Z,94357.38
2023-02-06T09:02:38.274Z,94360.53
2023-02-06T09:05:21.313Z,94364.38
2023-02-06T09:08:04.309Z,94368.22
2023-02-06T09:10:48.481Z,94354.75
2023-02-06T09:13:32.239Z,94357.78
2023-02-06T09:16:16.886Z,94355.41
2023-02-06T09:19:01.493Z,94348.22
2023-02-06T09:21:44.988Z,94344.78
2023-02-06T09:24:30.201Z,94343.94
2023-02-06T09:27:15.519Z,94341.81
2023-02-06T09:29:58.357Z,94346.19
2023-02-06T09:32:43.070Z,94341.56
2023-02-06T09:35:25.939Z,94339.25
2023-02-06T09:38:08.797Z,94334.44
2023-02-06T09:40:52.730Z,94339.59
2023-02-06T09:43:37.054Z,94332.38
2023-02-06T09:46:23.392Z,94327.13
2023-02-06T09:49:11.762Z,94325.16
2023-02-06T09:52:33.019Z,94320.63
2023-02-06T09:55:23.311Z,94325.00
2023-02-06T09:58:20.180Z,94324.53
2023-02-06T10:01:12.628Z,94316.06
2023-02-06T10:04:10.214Z,94324.03
2023-02-06T10:06:57.297Z,94320.13
2023-02-06T10:09:44.496Z,94322.69
2023-02-06T10:12:32.565Z,94306.16
2023-02-06T10:15:20.863Z,94305.47
2023-02-06T10:18:10.494Z,94305.78
2023-02-06T10:20:56.897Z,94307.81
2023-02-06T10:23:47.631Z,94308.56
2023-02-06T10:26:30.689Z,94308.28
2023-02-06T10:29:19.221Z,94301.44
2023-02-06T10:32:14.813Z,94294.19
2023-02-06T10:35:13.382Z,94299.50
2023-02-06T10:38:26.941Z,94297.78
2023-02-06T10:41:19.520Z,94298.91
2023-02-06T10:44:12.237Z,94296.97
2023-02-06T10:46:56.304Z,94293.28
2023-02-06T10:49:45.215Z,94292.91
2023-02-06T10:52:33.734Z,94292.66
2023-02-06T10:55:21.125Z,94293.34
2023-02-06T10:58:12.864Z,94285.88
2023-02-06T11:00:56.971Z,94283.53
2023-02-06T11:03:47.814Z,94289.56
2023-02-06T11:06:31.644Z,94283.31
2023-02-06T11:09:16.809Z,94277.38
2023-02-06T11:12:01.140Z,94276.84
2023-02-06T11:14:44.011Z,94268.91
2023-02-06T11:17:28.387Z,94277.59
2023-02-06T11:20:23.039Z,94275.53
2023-02-06T11:23:17.841Z,94265.81
2023-02-06T11:26:10.861Z,94269.88
2023-02-06T11:28:56.030Z,94269.63
2023-02-06T11:31:43.022Z,94267.72
2023-02-06T11:34:29.882Z,94259.34
2023-02-06T11:37:32.939Z,94271.00
2023-02-06T11:40:23.408Z,94264.03
2023-02-06T11:43:19.082Z,94268.00
2023-02-06T11:46:15.109Z,94264.66
2023-02-06T11:49:25.046Z,94258.97
2023-02-06T11:52:07.918Z,94267.50
2023-02-06T11:54:56.446Z,94266.88
2023-02-06T11:57:39.217Z,94273.41
2023-02-06T12:00:24.757Z,94261.84
2023-02-06T12:03:24.055Z,94254.50
2023-02-06T12:06:13.460Z,94264.69
2023-02-06T12:08:58.025Z,94254.75
2023-02-06T12:11:48.002Z,94253.94
2023-02-06T12:14:36.773Z,94239.25
2023-02-06T12:17:28.132Z,94230.81
2023-02-06T12:20:17.439Z,94222.78
2023-02-06T12:23:05.790Z,94217.09
2023-02-06T12:25:50.866Z,94219.59
2023-02-06T12:28:40.374Z,94221.25
2023-02-06T12:31:29.184Z,94219.44
2023-02-06T12:34:16.938Z,94213.63
2023-02-06T12:37:14.014Z,94216.06
2023-02-06T12:39:56.853Z,94211.75
2023-02-06T12:42:43.974Z,94212.78
2023-02-06T12:45:36.251Z,94213.28
2023-02-06T12:48:29.411Z,94214.03
2023-02-06T12:51:20.210Z,94221.72
2023-02-06T12:54:07.529Z,94224.44
2023-02-06T12:56:53.370Z,94216.97
2023-02-06T12:59:58.351Z,94210.88
2023-02-06T13:03:05.415Z,94204.91
2023-02-06T13:05:50.479Z,94207.84
2023-02-06T13:08:44.979Z,94205.53
2023-02-06T13:11:32.592Z,94195.78
2023-02-06T13:14:21.496Z,94192.66
2023-02-06T13:17:10.194Z,94201.69
2023-02-06T13:20:02.139Z,94192.25
2023-02-06T13:22:46.993Z,94191.25
2023-02-06T13:25:52.329Z,94186.91
2023-02-06T13:28:58.734Z,94188.47
2023-02-06T13:31:41.607Z,94189.94
2023-02-06T13:34:24.543Z,94192.06
2023-02-06T13:37:34.452Z,94181.41
2023-02-06T13:40:35.384Z,94179.22
2023-02-06T13:43:22.487Z,94173.44
2023-02-06T13:46:10.396Z,94180.09
2023-02-06T13:49:15.452Z,94181.47
2023-02-06T13:52:05.629Z,94182.31
2023-02-06T13:55:06.010Z,94193.47
2023-02-06T13:58:10.102Z,94185.94
2023-02-06T14:00:57.589Z,94177.44
2023-02-06T14:03:45.162Z,94179.44
2023-02-06T14:06:41.193Z,94174.50
2023-02-06T14:09:43.927Z,94181.00
2023-02-06T14:12:44.389Z,94175.34
2023-02-06T14:15:34.723Z,94184.09
2023-02-06T14:18:44.724Z,94182.56
2023-02-06T14:21:40.252Z,94173.84
2023-02-06T14:24:54.787Z,94173.19
2023-02-06T14:27:54.291Z,94173.78
2023-02-06T14:30:45.580Z,94176.88
2023-02-06T14:33:45.125Z,94185.50
2023-02-06T14:36:44.313Z,94173.91
2023-02-06T14:39:43.333Z,94173.25
2023-02-06T14:42:29.460Z,94177.53
2023-02-06T14:45:24.955Z,94177.94
2023-02-06T14:48:19.274Z,94167.66
2023-02-06T14:51:04.268Z,94165.03
2023-02-06T14:53:54.227Z,94164.91
2023-02-06T14:56:39.259Z,94170.50
2023-02-06T14:59:22.138Z,94158.44
2023-02-06T15:02:15.049Z,94178.16
2023-02-06T15:04:58.884Z,94183.38
2023-02-06T15:07:43.149Z,94176.91
2023-02-06T15:10:30.376Z,94176.38
2023-02-06T15:13:23.392Z,94181.78
2023-02-06T15:16:09.810Z,94185.44
2023-02-06T15:18:52.639Z,94183.22
2023-02-06T15:21:36.796Z,94186.88
2023-02-06T15:24:41.758Z,94201.38
2023-02-06T15:27:29.232Z,94207.38
2023-02-06T15:30:20.306Z,94208.34
2023-02-06T15:33:03.451Z,94218.59
2023-02-06T15:35:53.114Z,94217.38
2023-02-06T15:38:37.365Z,94216.44
2023-02-06T15:41:21.890Z,94221.88
2023-02-06T15:44:10.739Z,94224.56
2023-02-06T15:46:55.065Z,94222.06
2023-02-06T15:49:41.415Z,94223.13
2023-02-06T15:52:36.666Z,94217.34
2023-02-06T15:55:24.865Z,94225.94
2023-02-06T15:58:15.448Z,94222.66
2023-02-06T16:00:59.105Z,94227.13
2023-02-06T16:03:42.659Z,94229.59
2023-02-06T16:06:25.638Z,94232.28
2023-02-06T16:09:08.592Z,94240.03
2023-02-06T16:11:53.258Z,94254.81
2023-02-06T16:14:39.441Z,94253.56
2023-02-06T16:17:28.994Z,94249.59
2023-02-06T16:20:33.294Z,94261.28
2023-02-06T16:23:22.003Z,94261.47
2023-02-06T16:26:08.418Z,94264.22
2023-02-06T16:28:59.338Z,94266.84
2023-02-06T16:31:45.734Z,94282.41
2023-02-06T16:34:36.362Z,94284.75
2023-02-06T16:37:21.855Z,94296.22
2023-02-06T16:40:05.676Z,94293.25
2023-02-06T16:42:48.851Z,94288.13
2023-02-06T16:45:31.695Z,94300.22
2023-02-06T16:48:17.971Z,94303.59
2023-02-06T16:51:00.804Z,94307.19
2023-02-06T16:53:44.421Z,94298.81
2023-02-06T16:56:27.247Z,94300.72
2023-02-06T16:59:10.039Z,94301.84
2023-02-06T17:01:52.811Z,94298.56
2023-02-06T17:04:36.977Z,94295.22
2023-02-06T17:07:25.022Z,94300.31
2023-02-06T17:10:09.490Z,94292.84
2023-02-06T17:12:52.383Z,94299.22
2023-02-06T17:15:35.197Z,94303.75
2023-02-06T17:18:21.013Z,94303.25
2023-02-06T17:21:05.195Z,94316.25
2023-02-06T17:23:48.869Z,94320.00
2023-02-06T17:26:31.695Z,94320.50
2023-02-06T17:29:15.385Z,94315.34
2023-02-06T17:31:58.269Z,94326.38
2023-02-06T17:34:41.081Z,94321.13
2023-02-06T17:37:25.337Z,94322.25
2023-02-06T17:40:10.094Z,94323.38
2023-02-06T17:42:53.022Z,94324.63
2023-02-06T17:45:38.371Z,94330.41
2023-02-06T17:48:21.372Z,94334.88
2023-02-06T17:51:05.560Z,94339.28
2023-02-06T17:53:50.318Z,94343.84
2023-02-06T17:56:34.112Z,94337.44
2023-02-06T17:59:17.053Z,94353.53
2023-02-06T18:02:01.275Z,94360.69
2023-02-06T18:04:44.160Z,94349.84
2023-02-06T18:07:27.044Z,94344.53
2023-02-06T18:10:12.713Z,94353.78
2023-02-06T18:12:55.505Z,94361.69
2023-02-06T18:15:38.635Z,94362.09
2023-02-06T18:18:22.459Z,94362.84
2023-02-06T18:21:05.646Z,94364.59
2023-02-06T18:23:49.287Z,94365.53
2023-02-06T18:26:33.690Z,94372.84
2023-02-06T18:29:16.484Z,94375.75
2023-02-06T18:31:59.340Z,94367.13
2023-02-06T18:34:42.477Z,94369.72
2023-02-06T18:37:25.318Z,94372.38
2023-02-06T18:40:08.653Z,94376.47
2023-02-06T18:42:54.007Z,94366.78
2023-02-06T18:45:38.700Z,94357.97
2023-02-06T18:48:21.499Z,94364.75
2023-02-06T18:51:08.001Z,94359.84
2023-02-06T18:53:51.066Z,94372.56
2023-02-06T18:56:33.874Z,94376.03
2023-02-06T18:59:18.080Z,94379.56
2023-02-06T19:02:00.870Z,94369.53
2023-02-06T19:04:43.667Z,94383.16
2023-02-06T19:07:26.633Z,94385.69
2023-02-06T19:10:12.931Z,94391.41
2023-02-06T19:12:56.082Z,94387.19
2023-02-06T19:15:40.267Z,94387.19
2023-02-06T19:18:36.031Z,94386.50
2023-02-06T19:21:22.882Z,94385.53
2023-02-06T19:24:07.280Z,94384.63
2023-02-06T19:26:50.502Z,94396.41
2023-02-06T19:29:36.183Z,94392.75
2023-02-06T19:32:20.784Z,94394.88
2023-02-06T19:35:03.831Z,94401.75
2023-02-06T19:37:46.669Z,94407.69
2023-02-06T19:40:29.464Z,94419.88
2023-02-06T19:43:12.277Z,94412.06
2023-02-06T19:45:55.087Z,94406.91
2023-02-06T19:48:42.066Z,94421.25
2023-02-06T19:51:27.475Z,94428.84
2023-02-06T19:54:10.281Z,94422.34
2023-02-06T19:56:53.229Z,94427.38
2023-02-06T19:59:36.017Z,94422.91
2023-02-06T20:02:18.826Z,94405.72
2023-02-06T20:05:03.007Z,94414.03
2023-02-06T20:07:45.648Z,94416.56
2023-02-06T20:10:28.433Z,94409.19
2023-02-06T20:13:11.243Z,94403.22
2023-02-06T20:15:54.002Z,94395.78
2023-02-06T20:18:37.836Z,94383.53
2023-02-06T20:21:26.740Z,94380.69
2023-02-06T20:24:11.907Z,94382.94
2023-02-06T20:26:57.070Z,94385.25
2023-02-06T20:29:42.532Z,94377.91
2023-02-06T20:32:25.370Z,94384.41
2023-02-06T20:35:08.462Z,94376.91
2023-02-06T20:37:52.608Z,94369.91
2023-02-06T20:40:35.549Z,94375.50
2023-02-06T20:43:18.488Z,94374.44
2023-02-06T20:46:01.691Z,94376.91
2023-02-06T20:48:45.634Z,94379.47
2023-02-06T20:51:29.703Z,94389.34
2023-02-06T20:54:14.112Z,94387.38
2023-02-06T20:56:57.070Z,94389.16
2023-02-06T20:59:39.845Z,94395.47
2023-02-06T21:02:22.794Z,94393.88
2023-02-06T21:05:06.205Z,94394.03
2023-02-06T21:07:49.040Z,94387.38
2023-02-06T21:10:33.173Z,94371.22
2023-02-06T21:13:15.803Z,94372.19
2023-02-06T21:15:59.599Z,94379.44
2023-02-06T21:18:42.742Z,94390.09
2023-02-06T21:21:26.413Z,94393.31
2023-02-06T21:24:09.960Z,94396.78
2023-02-06T21:26:54.354Z,94404.59
2023-02-06T21:29:37.132Z,94414.16
2023-02-06T21:32:19.954Z,94414.41
2023-02-06T21:35:02.744Z,94415.38
2023-02-06T21:37:45.550Z,94418.81
2023-02-06T21:40:28.429Z,94413.72
2023-02-06T21:43:15.105Z,94421.22
2023-02-06T21:45:58.086Z,94422.84
2023-02-06T21:48:42.145Z,94424.81
2023-02-06T21:51:25.213Z,94429.47
2023-02-06T21:54:08.141Z,94432.84
2023-02-06T21:56:50.927Z,94446.34
2023-02-06T21:59:36.394Z,94443.78
2023-02-06T22:02:19.191Z,94442.78
2023-02-06T22:05:01.976Z,94444.31
2023-02-06T22:07:44.780Z,94435.09
2023-02-06T22:10:27.649Z,94443.66
2023-02-06T22:13:10.513Z,94439.84
2023-02-06T22:15:54.671Z,94443.91
2023-02-06T22:18:38.138Z,94448.94
2023-02-06T22:21:23.128Z,94459.06
2023-02-06T22:24:07.989Z,94461.66
2023-02-06T22:26:50.827Z,94467.75
2023-02-06T22:29:33.992Z,94481.41
2023-02-06T22:32:18.386Z,94475.69
2023-02-06T22:35:01.809Z,94487.47
2023-02-06T22:37:44.699Z,94492.47
2023-02-06T22:40:27.518Z,94491.78
2023-02-06T22:43:10.320Z,94501.88
2023-02-06T22:45:53.114Z,94497.81
2023-02-06T22:48:37.936Z,94505.38
2023-02-06T22:51:21.429Z,94516.34
2023-02-06T22:54:05.535Z,94519.56
2023-02-06T22:56:48.290Z,94523.84
2023-02-06T22:59:31.115Z,94524.66
2023-02-06T23:02:13.888Z,94531.31
2023-02-06T23:04:59.197Z,94523.66
2023-02-06T23:07:42.005Z,94510.94
2023-02-06T23:10:24.778Z,94514.09
2023-02-06T23:13:07.574Z,94524.00
2023-02-06T23:15:50.741Z,94522.19
2023-02-06T23:18:34.069Z,94515.38
2023-02-06T23:21:20.760Z,94501.81
2023-02-06T23:24:04.301Z,94489.38
2023-02-06T23:26:49.274Z,94490.84
2023-02-06T23:29:32.109Z,94489.31
2023-02-06T23:32:15.252Z,94491.03
2023-02-06T23:34:59.534Z,94487.72
2023-02-06T23:37:43.682Z,94507.19
2023-02-06T23:40:26.318Z,94507.88
2023-02-06T23:43:09.127Z,94515.31
2023-02-06T23:45:51.934Z,94511.38
2023-02-06T23:48:35.106Z,94507.28
2023-02-06T23:51:18.900Z,94509.88
2023-02-06T23:54:03.442Z,94499.88
2023-02-06T23:56:46.331Z,94494.97
2023-02-06T23:59:29.131Z,94490.22
